Makita — V2ET2 — position and weather

sailwx.info

Track history (hours):
 
Tides and Currents Weather Stations Pressure Air Temp Water Temp Dewpoint Dewpoint Depression Visibility Wind Speed Wind Dir Waves Ship Positions

Makita

Last reported at 2014-Sep-19 19:27 UTC. Time now 2014-Sep-20 01:51 UTC.
Position N 29°24' E 122°29'.

Length 260 m; draft 11 m.

Type: Ship. MMSI: 305543000.

Date/timePositionNaut miles runAvg speedWind from/ knotsBaromVisibWave heightAir tempDewpointWater temp
2014-Sep-19 19:27N 29°24' E 122°29'1312.8
2014-Sep-19 18:26N 29°36' E 122°27'1214.0
2014-Sep-19 17:33N 29°46' E 122°18'1312.7
2014-Sep-19 16:33N 29°55' E 122°08'5 3.6
2014-Sep-19 15:16N 29°53' E 122°03'0 0.0
2014-Sep-19 14:28N 29°53' E 122°03'0 0.0
2014-Sep-19 12:22N 29°53' E 122°03'0 0.0
2014-Sep-19 11:22N 29°53' E 122°03'0 0.0
2014-Sep-19 10:04N 29°53' E 122°03'0 0.0
2014-Sep-19 09:28N 29°53' E 122°03'0 0.0
2014-Sep-19 05:28N 29°53' E 122°03'0 0.0
2014-Sep-19 03:28N 29°53' E 122°03'0 0.0
2014-Sep-19 02:10N 29°53' E 122°03'0 0.0
2014-Sep-19 00:28N 29°53' E 122°03'1 1.3
2014-Sep-18 23:33N 29°54' E 122°04'9 9.3
2014-Sep-18 22:33N 29°49' E 122°14'9 9.2
2014-Sep-18 21:33N 29°44' E 122°23'1312.7
2014-Sep-18 20:33N 29°46' E 122°37'1814.6
2014-Sep-18 19:21N 29°58' E 122°52'4213.3
2014-Sep-18 16:09N 30°40' E 122°58'915.8
2014-Sep-18 15:33N 30°48' E 122°52'2115.2
2014-Sep-18 14:11N 31°05' E 122°37'4411.2
2014-Sep-18 10:13N 31°17' E 121°48'710.8
2014-Sep-18 09:32N 31°20' E 121°40'0 0.1
2014-Sep-18 07:06N 31°20' E 121°40'0 0.0
2014-Sep-18 05:18N 31°20' E 121°40'0 0.0
2014-Sep-18 04:30N 31°20' E 121°40'0 0.0
2014-Sep-18 03:30N 31°20' E 121°40'0 0.0
2014-Sep-18 01:12N 31°20' E 121°40'0 0.0
2014-Sep-18 00:24N 31°20' E 121°40'0 0.0
2014-Sep-17 23:30N 31°20' E 121°40'0 0.0
2014-Sep-17 20:30N 31°20' E 121°40'0 0.0
2014-Sep-17 19:24N 31°20' E 121°40'0 0.0
2014-Sep-17 16:12N 31°20' E 121°40'0 0.0
2014-Sep-17 15:12N 31°20' E 121°40'1 0.2
2014-Sep-17 09:33N 31°20' E 121°41'1210.5
2014-Sep-17 08:22N 31°16' E 121°54'49 2.5
2014-Sep-16 12:22N 30°57' E 122°47'1316.2
2014-Sep-16 11:33N 30°46' E 122°55'3517.6
2014-Sep-16 09:33N 30°11' E 123°05'3616.2
2014-Sep-16 07:21N 29°39' E 122°48'1113.5
2014-Sep-16 06:32N 29°31' E 122°40'1414.2
2014-Sep-16 05:32N 29°17' E 122°34'1914.6
2014-Sep-16 04:15N 28°60' E 122°26'36115.1
2014-Sep-15 04:19N 24°05' E 118°33'1317.3
2014-Sep-15 03:33N 23°57' E 118°22'1818.0
2014-Sep-15 02:33N 23°46' E 118°06'  
2014-Sep-11 02:32N 01°15' E 104°01'1311.2
2014-Sep-11 01:25N 01°12' E 103°49'6 0.5
2014-Sep-10 11:27N 01°17' E 103°45'1 0.8
2014-Sep-10 10:33N 01°16' E 103°46'1 0.5
2014-Sep-10 09:33N 01°16' E 103°46'4 4.4
2014-Sep-10 08:33N 01°14' E 103°42'  
Track history (hours):
 
Tides and Currents Weather Stations Pressure Air Temp Water Temp Dewpoint Dewpoint Depression Visibility Wind Speed Wind Dir Waves Ship Positions

Makita

Last reported at 2014-Sep-19 19:27 UTC. Time now 2014-Sep-20 01:51 UTC.
Position N 29°24' E 122°29'.

Length 260 m; draft 11 m.

Type: Ship. MMSI: 305543000.

Date/timePositionNaut miles runAvg speedWind from/ knotsBaromVisibWave heightAir tempDewpointWater temp
2014-Sep-19 19:27N 29°24' E 122°29'1312.8
2014-Sep-19 18:26N 29°36' E 122°27'1214.0
2014-Sep-19 17:33N 29°46' E 122°18'1312.7
2014-Sep-19 16:33N 29°55' E 122°08'5 3.6
2014-Sep-19 15:16N 29°53' E 122°03'0 0.0
2014-Sep-19 14:28N 29°53' E 122°03'0 0.0
2014-Sep-19 12:22N 29°53' E 122°03'0 0.0
2014-Sep-19 11:22N 29°53' E 122°03'0 0.0
2014-Sep-19 10:04N 29°53' E 122°03'0 0.0
2014-Sep-19 09:28N 29°53' E 122°03'0 0.0
2014-Sep-19 05:28N 29°53' E 122°03'0 0.0
2014-Sep-19 03:28N 29°53' E 122°03'0 0.0
2014-Sep-19 02:10N 29°53' E 122°03'0 0.0
2014-Sep-19 00:28N 29°53' E 122°03'1 1.3
2014-Sep-18 23:33N 29°54' E 122°04'9 9.3
2014-Sep-18 22:33N 29°49' E 122°14'9 9.2
2014-Sep-18 21:33N 29°44' E 122°23'1312.7
2014-Sep-18 20:33N 29°46' E 122°37'1814.6
2014-Sep-18 19:21N 29°58' E 122°52'4213.3
2014-Sep-18 16:09N 30°40' E 122°58'915.8
2014-Sep-18 15:33N 30°48' E 122°52'2115.2
2014-Sep-18 14:11N 31°05' E 122°37'4411.2
2014-Sep-18 10:13N 31°17' E 121°48'710.8
2014-Sep-18 09:32N 31°20' E 121°40'0 0.1
2014-Sep-18 07:06N 31°20' E 121°40'0 0.0
2014-Sep-18 05:18N 31°20' E 121°40'0 0.0
2014-Sep-18 04:30N 31°20' E 121°40'0 0.0
2014-Sep-18 03:30N 31°20' E 121°40'0 0.0
2014-Sep-18 01:12N 31°20' E 121°40'0 0.0
2014-Sep-18 00:24N 31°20' E 121°40'0 0.0
2014-Sep-17 23:30N 31°20' E 121°40'0 0.0
2014-Sep-17 20:30N 31°20' E 121°40'0 0.0
2014-Sep-17 19:24N 31°20' E 121°40'0 0.0
2014-Sep-17 16:12N 31°20' E 121°40'0 0.0
2014-Sep-17 15:12N 31°20' E 121°40'1 0.2
2014-Sep-17 09:33N 31°20' E 121°41'1210.5
2014-Sep-17 08:22N 31°16' E 121°54'49 2.5
2014-Sep-16 12:22N 30°57' E 122°47'1316.2
2014-Sep-16 11:33N 30°46' E 122°55'3517.6
2014-Sep-16 09:33N 30°11' E 123°05'3616.2
2014-Sep-16 07:21N 29°39' E 122°48'1113.5
2014-Sep-16 06:32N 29°31' E 122°40'1414.2
2014-Sep-16 05:32N 29°17' E 122°34'1914.6
2014-Sep-16 04:15N 28°60' E 122°26'36115.1
2014-Sep-15 04:19N 24°05' E 118°33'1317.3
2014-Sep-15 03:33N 23°57' E 118°22'1818.0
2014-Sep-15 02:33N 23°46' E 118°06'  
2014-Sep-11 02:32N 01°15' E 104°01'1311.2
2014-Sep-11 01:25N 01°12' E 103°49'6 0.5
2014-Sep-10 11:27N 01°17' E 103°45'1 0.8
2014-Sep-10 10:33N 01°16' E 103°46'1 0.5
2014-Sep-10 09:33N 01°16' E 103°46'4 4.4
2014-Sep-10 08:33N 01°14' E 103°42'  

Dump ship's entire track history